Barnerville, New York
Current Conditions -  °F | °C
As of 1:55 PM on Tuesday 27 Jan 2015 (Local Time) from KNY0 Reporting Station
Overcast Overcast  
Wind Chill: -1°   Ceiling: 1400
Heat Index: 13°   Visibility: 1.2mi
Dew Point:   Wind: 12mph
Humidity: 74%   Direction: 260°W
Pressure: 29.75"   Gusts: NA
Location:  42.7023°N, 74.392°W
Report Text: KNY0 271855Z AUTO 26010KT 1 1/4SM OVC014 M11/M14 A2975 RMK AO2 T11061145
Loading
Personal Weather Stations






























Interactive Weather Map New forecast layout! Learn more

10-Day Weather Forecast

Advertisements
Track Severe Weather on mobile